Where is Adarse in Portugal?

 

Adarse is situated in the region Lisboa in Portugal!

Search the name of a city:

Adarouchene, Adarlona, Adar Ntagayt, Adar n' Oualaene, Adar

Here you will find the location of Adarse on a map.
To see how it currently looks like outside, below are some pictures of the area from online web cameras.
You can also find the distance to the main cities in the region and to cities in the rest of Portugal.

World Cities
Cities in Portugal that are also found in other countries in the world.


Where is Adarse on the map?




Webcams near Adarse

Parque das Nacoes › South: Rua Vasco da Gama.


Parque das Nacoes › South: Rua Vasco da Gama - Day time
Current
Parque das Nacoes › South: Rua Vasco da Gama - Current

Lisbon › North: Ponte Vasco da Gama.


Lisbon › North: Ponte Vasco da Gama - Day time
Current
Lisbon › North: Ponte Vasco da Gama - Current

Benavente › North-East: Santarém - AIrport, METAR: BENAV 180005Z 36004KT 17/14 Q1015.


Benavente › North-East: Santarém - AIrport, METAR: BENAV 180005Z 36004KT 17/14 Q1015 - Day time
Current
Benavente › North-East: Santarém - AIrport, METAR: BENAV 180005Z 36004KT 17/14 Q1015 - Current

Webcams provided by windy.comadd a webcam


Distances

Where is Adarse relative to other places?

Top 10 cities in Lisboa and distance from Adarse.

City#Populationkmmiles
Lisbon15177982314
Amadora21788562415
Queluz31033982616
Loures466230149
Rio de Mouro5546953119
Odivelas6546231912
São Domingos de Rana7467173522
Cascais8364364226
Alcabideche9333153924
Póvoa de Santa Iria102890064

Top 10 cities in Portugal and distance from Adarse.

City # Populationkmmiles
Lisbon15177982314
Porto2249630253157
Amadora31788562415
Braga4121393299186
Setúbal51171094226
Coimbra610658015496
Queluz71033982616
Funchal898041995618
Vila Nova de Gaia970810251156
Loures1066230149


Info

Statistics and Geographics

Portugal is made up of 15299 cities in 20 regions.

The region Lisboa has 1032 cities.

Adarse is number 80 in the region Lisboa.

The city is number 527 in Portugal.

Where is Adarse in Portugal?